Euless, TX

10:21 AM CST on December 29, 2014 (GMT -0600)
Dallas-Fort Worth International | Change Station
CLOSE
Current Station
Airport
Location: Dallas/Ft Worth,
Elevation: 597 ft
Nearby Weather Stations
Active Advisory: Special Statement

Elev 597 ft 32.90 °N, 97.02 °W | Updated 28 minutes ago

Partly Cloudy
Partly Cloudy
38 °F
Feels Like 31 °F
N
10
Wind Variable Wind from SE

Today
High -- | Low -- °F
--% Chance of Precip.
Yesterday
High -- | Low -- °F
Precip. -- in
7:30 AM 5:30 PM
First Quarter, 60% visible
Pressure 30.17 in
Visibility 10.0 miles
Clouds Few 22000 ft
Scattered Clouds 30000 ft
Windchill 31 °F
Dew Point 31 °F
Humidity 76%
Rainfall 0.00 in
Snow Depth Not available.
UV 1 out of 12
Pollen 9.70 out of 12
Air Quality Not available.
Flu Activity Not available.
METAR KDFW 291553Z 14009KT 10SM FEW220 SCT300 03/M01 A3016 RMK AO2 SLP215 T00331006 $

More Conditions Fewer Conditions

Pressure 30.17 in
Visibility 10.0 miles
Clouds Few 22000 ft
Scattered Clouds 30000 ft
Windchill 31 °F
Dew Point 31 °F
Humidity 76%
Rainfall 0.00 in
Snow Depth Not available.
UV 1 out of 12
Pollen 9.70 out of 12
Air Quality Not available.
Flu Activity Not available.
METAR KDFW 291553Z 14009KT 10SM FEW220 SCT300 03/M01 A3016 RMK AO2 SLP215 T00331006 $

More Conditions Fewer Conditions

Nowcast | as of 8:29 am CST on December 29, 2014

Patchy areas of dense fog or freezing fog will continue through late morning generally along and east of Interstate 45 and south of Interstate 30. Temperatures are expected to rise above freezing quickly with no impacts from any freezing fog expected. Visibilities below a mile in spots are expected. Allow extra time to reach your destination...slow down and use low beams for better visibility. Elsewhere...party sunny conditions are expected. Temperatures are expected to rise through the 40s this morning with southeast winds near 10 mph.

×

10-Day Weather Forecast

Almanac

Astronomy

Dec. 29, 2014 Rise Set
Actual Time
Civil Twilight
Nautical Twilight
Astronomical Twilight
Moon
Length of Visible Light
Length of Day
Tomorrow will be .
, % of the Moon is Illuminated

Today's Extremes

State Highs State Lows

Community

WunderPhotos

Upload Photos

1,781,631 photos uploaded!

WunderBlogs® & News

Nearby

Air Quality

  Air Quality AQ Index Pollutant
Not available.

Snow Depth

Station Depth Elevation

Earthquake Activity

City Distance Mag. Time & Date
Minimum magnitude displayed is 2.5.

Coastal Water Temperatures

Place Temperature

Nearby Weather Stations